createdAt,value
2023-02-12T00:00:08.111Z,100800.03
2023-02-12T00:02:42.180Z,100800.09
2023-02-12T00:05:09.673Z,100808.59
2023-02-12T00:07:36.821Z,100810.84
2023-02-12T00:10:04.045Z,100810.56
2023-02-12T00:12:31.469Z,100793.56
2023-02-12T00:14:58.637Z,100799.37
2023-02-12T00:17:25.823Z,100802.56
2023-02-12T00:19:53.248Z,100827.34
2023-02-12T00:22:20.396Z,100828.56
2023-02-12T00:24:47.614Z,100834.00
2023-02-12T00:27:15.038Z,100827.00
2023-02-12T00:29:42.186Z,100831.78
2023-02-12T00:32:09.411Z,100832.22
2023-02-12T00:34:36.856Z,100846.78
2023-02-12T00:37:04.041Z,100847.81
2023-02-12T00:39:31.381Z,100851.88
2023-02-12T00:41:58.792Z,100840.59
2023-02-12T00:44:25.958Z,100831.59
2023-02-12T00:46:53.170Z,100832.56
2023-02-12T00:49:20.562Z,100812.84
2023-02-12T00:51:50.172Z,100818.28
2023-02-12T00:54:18.295Z,100812.53
2023-02-12T00:56:45.752Z,100806.34
2023-02-12T00:59:12.918Z,100816.37
2023-02-12T01:01:40.138Z,100815.12
2023-02-12T01:04:07.602Z,100816.31
2023-02-12T01:06:34.736Z,100813.88
2023-02-12T01:09:02.092Z,100809.63
2023-02-12T01:11:29.499Z,100814.59
2023-02-12T01:13:56.662Z,100812.34
2023-02-12T01:16:24.694Z,100809.16
2023-02-12T01:18:55.495Z,100809.38
2023-02-12T01:21:24.069Z,100808.25
2023-02-12T01:23:51.556Z,100796.72
2023-02-12T01:26:19.704Z,100793.22
2023-02-12T01:28:51.326Z,100782.09
2023-02-12T01:31:19.747Z,100781.91
2023-02-12T01:33:50.585Z,100776.78
2023-02-12T01:36:17.877Z,100773.00
2023-02-12T01:38:47.117Z,100788.34
2023-02-12T01:41:21.428Z,100781.38
2023-02-12T01:44:08.065Z,100785.94
2023-02-12T01:46:35.328Z,100783.53
2023-02-12T01:49:03.908Z,100775.31
2023-02-12T01:51:31.924Z,100773.59
2023-02-12T01:53:59.566Z,100764.97
2023-02-12T01:56:27.200Z,100763.13
2023-02-12T01:58:55.647Z,100754.50
2023-02-12T02:01:24.888Z,100750.31
2023-02-12T02:03:54.107Z,100756.22
2023-02-12T02:06:23.028Z,100748.28
2023-02-12T02:08:50.211Z,100762.72
2023-02-12T02:11:36.324Z,100759.59
2023-02-12T02:14:23.012Z,100766.97
2023-02-12T02:16:53.841Z,100753.47
2023-02-12T02:19:20.966Z,100758.38
2023-02-12T02:22:06.825Z,100769.06
2023-02-12T02:24:37.365Z,100771.12
2023-02-12T02:27:10.651Z,100765.44
2023-02-12T02:29:44.385Z,100782.63
2023-02-12T02:32:17.105Z,100778.34
2023-02-12T02:34:56.895Z,100776.56
2023-02-12T02:37:28.030Z,100775.72
2023-02-12T02:39:56.240Z,100785.66
2023-02-12T02:42:23.348Z,100790.19
2023-02-12T02:44:54.783Z,100792.53
2023-02-12T02:47:24.416Z,100799.13
2023-02-12T02:49:59.089Z,100804.84
2023-02-12T02:52:28.996Z,100819.81
2023-02-12T02:54:56.738Z,100822.81
2023-02-12T02:57:25.405Z,100831.16
2023-02-12T02:59:54.856Z,100836.41
2023-02-12T03:02:23.744Z,100832.25
2023-02-12T03:04:52.379Z,100828.94
2023-02-12T03:07:27.517Z,100828.00
2023-02-12T03:09:57.355Z,100835.62
2023-02-12T03:12:29.117Z,100840.63
2023-02-12T03:15:14.949Z,100846.22
2023-02-12T03:17:43.400Z,100843.53
2023-02-12T03:20:24.571Z,100845.78
2023-02-12T03:23:01.738Z,100846.59
2023-02-12T03:25:31.186Z,100851.63
2023-02-12T03:28:04.200Z,100867.81
2023-02-12T03:30:35.293Z,100873.44
2023-02-12T03:33:10.299Z,100885.19
2023-02-12T03:35:57.625Z,100883.47
2023-02-12T03:38:28.854Z,100890.13
2023-02-12T03:40:56.839Z,100886.62
2023-02-12T03:43:25.702Z,100886.91
2023-02-12T03:45:56.309Z,100890.31
2023-02-12T03:48:23.647Z,100889.25
2023-02-12T03:50:56.624Z,100904.59
2023-02-12T03:53:25.033Z,100899.03
2023-02-12T03:55:55.223Z,100900.97
2023-02-12T03:58:23.682Z,100905.88
2023-02-12T04:00:51.188Z,100913.94
2023-02-12T04:03:18.682Z,100903.44
2023-02-12T04:05:45.839Z,100911.84
2023-02-12T04:08:13.070Z,100905.47
2023-02-12T04:10:43.696Z,100911.13
2023-02-12T04:13:19.344Z,100928.03
2023-02-12T04:16:04.215Z,100939.50
2023-02-12T04:18:41.507Z,100929.47
2023-02-12T04:21:11.940Z,100930.62
2023-02-12T04:23:39.000Z,100927.88
2023-02-12T04:26:11.525Z,100943.28
2023-02-12T04:28:42.067Z,100939.25
2023-02-12T04:31:12.276Z,100951.91
2023-02-12T04:33:45.210Z,100955.53
2023-02-12T04:36:13.849Z,100947.69
2023-02-12T04:38:42.211Z,100945.25
2023-02-12T04:41:09.500Z,100954.59
2023-02-12T04:43:37.244Z,100951.97
2023-02-12T04:46:05.753Z,100956.09
2023-02-12T04:48:34.592Z,100956.56
2023-02-12T04:51:01.831Z,100953.25
2023-02-12T04:53:29.274Z,100966.53
2023-02-12T04:55:56.853Z,100968.22
2023-02-12T04:58:24.259Z,100977.47
2023-02-12T05:00:51.687Z,100979.31
2023-02-12T05:03:18.855Z,100986.75
2023-02-12T05:05:46.000Z,100987.06
2023-02-12T05:08:13.371Z,100997.75
2023-02-12T05:10:40.538Z,100987.16
2023-02-12T05:13:07.704Z,100987.31
2023-02-12T05:15:35.174Z,100993.78
2023-02-12T05:18:02.341Z,101003.44
2023-02-12T05:20:29.465Z,101006.59
2023-02-12T05:22:56.840Z,100998.38
2023-02-12T05:25:24.025Z,101004.31
2023-02-12T05:27:51.150Z,101000.97
2023-02-12T05:30:18.651Z,101010.50
2023-02-12T05:32:45.885Z,101016.94
2023-02-12T05:35:13.014Z,101015.78
2023-02-12T05:37:40.415Z,101009.72
2023-02-12T05:40:08.878Z,101013.72
2023-02-12T05:42:36.048Z,101020.75
2023-02-12T05:45:03.513Z,101024.59
2023-02-12T05:47:30.745Z,101026.81
2023-02-12T05:49:57.928Z,101020.00
2023-02-12T05:52:25.362Z,101036.28
2023-02-12T05:54:52.573Z,101042.28
2023-02-12T05:57:19.747Z,101048.19
2023-02-12T05:59:47.161Z,101052.22
2023-02-12T06:02:14.355Z,101054.59
2023-02-12T06:04:41.900Z,101056.03
2023-02-12T06:07:09.020Z,101063.63
2023-02-12T06:09:36.358Z,101069.75
2023-02-12T06:12:03.904Z,101069.41
2023-02-12T06:14:32.081Z,101075.38
2023-02-12T06:16:59.425Z,101062.62
2023-02-12T06:19:26.867Z,101078.00
2023-02-12T06:21:53.995Z,101074.56
2023-02-12T06:24:21.159Z,101075.97
2023-02-12T06:26:49.561Z,101083.81
2023-02-12T06:29:16.776Z,101092.50
2023-02-12T06:31:44.122Z,101089.88
2023-02-12T06:34:12.505Z,101078.28
2023-02-12T06:36:40.550Z,101073.69
2023-02-12T06:39:07.788Z,101079.38
2023-02-12T06:41:35.220Z,101090.63
2023-02-12T06:44:02.393Z,101070.31
2023-02-12T06:46:29.806Z,101069.41
2023-02-12T06:48:58.534Z,101083.47
2023-02-12T06:51:26.147Z,101091.06
2023-02-12T06:53:53.688Z,101092.91
2023-02-12T06:56:21.770Z,101096.44
2023-02-12T06:58:55.802Z,101101.22
2023-02-12T07:01:24.738Z,101103.72
2023-02-12T07:03:53.054Z,101103.66
2023-02-12T07:06:20.590Z,101105.13
2023-02-12T07:08:48.140Z,101114.34
2023-02-12T07:11:15.565Z,101116.88
2023-02-12T07:13:43.109Z,101129.31
2023-02-12T07:16:15.023Z,101129.13
2023-02-12T07:18:42.383Z,101137.34
2023-02-12T07:21:09.793Z,101146.63
2023-02-12T07:23:37.424Z,101139.41
2023-02-12T07:26:13.794Z,101139.97
2023-02-12T07:28:41.647Z,101154.41
2023-02-12T07:31:13.207Z,101156.72
2023-02-12T07:33:41.130Z,101157.09
2023-02-12T07:36:09.746Z,101165.28
2023-02-12T07:38:39.819Z,101166.22
2023-02-12T07:41:27.640Z,101164.38
2023-02-12T07:43:56.713Z,101166.34
2023-02-12T07:46:29.641Z,101181.34
2023-02-12T07:48:57.591Z,101169.91
2023-02-12T07:51:26.245Z,101177.19
2023-02-12T07:53:53.541Z,101188.47
2023-02-12T07:56:21.784Z,101171.75
2023-02-12T07:58:50.683Z,101168.94
2023-02-12T08:01:18.095Z,101167.44
2023-02-12T08:03:45.805Z,101177.09
2023-02-12T08:06:23.117Z,101172.69
2023-02-12T08:08:51.273Z,101175.69
2023-02-12T08:11:18.826Z,101175.81
2023-02-12T08:13:46.009Z,101175.69
2023-02-12T08:16:14.529Z,101178.91
2023-02-12T08:18:41.728Z,101186.97
2023-02-12T08:21:10.003Z,101198.59
2023-02-12T08:23:37.447Z,101204.62
2023-02-12T08:26:15.023Z,101191.75
2023-02-12T08:28:46.608Z,101189.59
2023-02-12T08:31:14.970Z,101193.19
2023-02-12T08:33:42.443Z,101201.91
2023-02-12T08:36:14.610Z,101197.88
2023-02-12T08:38:42.271Z,101209.87
2023-02-12T08:41:10.486Z,101207.69
2023-02-12T08:43:37.845Z,101219.06
2023-02-12T08:46:06.216Z,101215.41
2023-02-12T08:48:33.668Z,101220.16
2023-02-12T08:51:19.573Z,101224.22
2023-02-12T08:53:47.501Z,101223.37
2023-02-12T08:56:15.841Z,101230.81
2023-02-12T08:58:43.012Z,101231.78
2023-02-12T09:01:11.277Z,101234.66
2023-02-12T09:03:38.731Z,101235.94
2023-02-12T09:06:06.555Z,101234.78
2023-02-12T09:08:33.962Z,101244.53
2023-02-12T09:11:04.167Z,101247.44
2023-02-12T09:13:31.358Z,101250.25
2023-02-12T09:16:00.226Z,101258.38
2023-02-12T09:18:27.408Z,101254.72
2023-02-12T09:20:54.627Z,101258.00
2023-02-12T09:23:22.035Z,101266.44
2023-02-12T09:25:49.166Z,101259.34
2023-02-12T09:28:16.429Z,101264.97
2023-02-12T09:30:43.992Z,101264.63
2023-02-12T09:33:11.871Z,101270.66
2023-02-12T09:35:39.432Z,101269.62
2023-02-12T09:38:07.047Z,101264.28
2023-02-12T09:40:53.017Z,101268.03
2023-02-12T09:43:26.202Z,101262.53
2023-02-12T09:45:56.251Z,101258.09
2023-02-12T09:48:28.717Z,101255.22
2023-02-12T09:50:56.919Z,101261.41
2023-02-12T09:53:25.422Z,101263.81
2023-02-12T09:55:52.559Z,101267.72
2023-02-12T09:58:29.176Z,101265.53
2023-02-12T10:00:56.646Z,101266.72
2023-02-12T10:03:24.123Z,101272.03
2023-02-12T10:05:52.127Z,101275.59
2023-02-12T10:08:42.558Z,101271.94
2023-02-12T10:11:10.084Z,101272.50
2023-02-12T10:13:55.853Z,101277.53
2023-02-12T10:16:23.329Z,101288.13
2023-02-12T10:18:53.707Z,101278.84
2023-02-12T10:21:39.557Z,101284.53
2023-02-12T10:24:07.113Z,101294.66
2023-02-12T10:26:44.705Z,101291.69
2023-02-12T10:29:29.388Z,101297.50
2023-02-12T10:31:59.702Z,101296.62
2023-02-12T10:34:30.734Z,101299.38
2023-02-12T10:37:09.783Z,101302.31
2023-02-12T10:39:38.137Z,101303.34
2023-02-12T10:42:43.953Z,101308.94
2023-02-12T10:45:13.581Z,101299.41
2023-02-12T10:47:40.855Z,101296.19
2023-02-12T10:50:20.610Z,101303.53
2023-02-12T10:52:53.269Z,101306.59
2023-02-12T10:55:26.352Z,101298.72
2023-02-12T10:57:54.073Z,101292.47
2023-02-12T11:00:24.764Z,101298.75
2023-02-12T11:03:04.616Z,101299.41
2023-02-12T11:05:34.883Z,101298.41
2023-02-12T11:08:03.508Z,101295.25
2023-02-12T11:10:34.744Z,101299.31
2023-02-12T11:13:02.344Z,101303.69
2023-02-12T11:15:46.655Z,101298.81
2023-02-12T11:18:22.161Z,101302.31
2023-02-12T11:21:08.433Z,101306.94
2023-02-12T11:23:37.789Z,101304.41
2023-02-12T11:26:06.459Z,101309.13
2023-02-12T11:28:36.007Z,101307.78
2023-02-12T11:31:23.947Z,101306.78
2023-02-12T11:34:06.240Z,101310.75
2023-02-12T11:36:35.053Z,101313.25
2023-02-12T11:39:02.324Z,101315.53
2023-02-12T11:41:36.460Z,101306.78
2023-02-12T11:44:11.834Z,101310.78
2023-02-12T11:46:39.257Z,101299.97
2023-02-12T11:49:06.713Z,101309.03
2023-02-12T11:51:34.082Z,101304.94
2023-02-12T11:54:02.223Z,101311.97
2023-02-12T11:56:45.416Z,101306.25
2023-02-12T11:59:16.826Z,101310.97
2023-02-12T12:01:44.437Z,101307.97
2023-02-12T12:04:13.268Z,101311.84
2023-02-12T12:06:41.496Z,101310.06
2023-02-12T12:09:11.725Z,101314.38
2023-02-12T12:11:59.434Z,101306.66
2023-02-12T12:14:27.797Z,101309.09
2023-02-12T12:17:23.709Z,101314.84
2023-02-12T12:20:10.375Z,101298.59
2023-02-12T12:22:41.070Z,101292.50
2023-02-12T12:25:14.366Z,101296.19
2023-02-12T12:28:03.392Z,101298.69
2023-02-12T12:30:51.419Z,101288.00
2023-02-12T12:33:38.091Z,101288.66
2023-02-12T12:36:14.460Z,101286.00
2023-02-12T12:38:51.100Z,101287.09
2023-02-12T12:41:22.416Z,101279.16
2023-02-12T12:44:02.050Z,101282.06
2023-02-12T12:46:35.561Z,101285.81
2023-02-12T12:49:03.014Z,101281.19
2023-02-12T12:51:30.300Z,101290.19
2023-02-12T12:54:03.613Z,101287.03
2023-02-12T12:56:37.815Z,101283.16
2023-02-12T12:59:23.929Z,101287.75
2023-02-12T13:02:03.980Z,101282.91
2023-02-12T13:04:37.793Z,101283.78
2023-02-12T13:07:11.521Z,101282.62
2023-02-12T13:09:43.429Z,101282.38
2023-02-12T13:12:23.258Z,101287.66
2023-02-12T13:14:56.095Z,101282.78
2023-02-12T13:17:26.150Z,101282.06
2023-02-12T13:19:55.897Z,101281.06
2023-02-12T13:22:29.012Z,101277.09
2023-02-12T13:24:56.634Z,101279.44
2023-02-12T13:27:27.826Z,101280.00
2023-02-12T13:29:57.942Z,101283.91
2023-02-12T13:32:54.625Z,101280.00
2023-02-12T13:35:23.027Z,101279.91
2023-02-12T13:37:51.967Z,101283.16
2023-02-12T13:40:20.420Z,101286.28
2023-02-12T13:43:06.327Z,101290.97
2023-02-12T13:45:33.697Z,101290.41
2023-02-12T13:48:12.986Z,101293.19
2023-02-12T13:50:50.077Z,101295.72
2023-02-12T13:53:26.167Z,101301.25
2023-02-12T13:55:56.913Z,101305.19
2023-02-12T13:58:40.194Z,101304.91
2023-02-12T14:01:14.782Z,101299.34
2023-02-12T14:03:42.279Z,101305.25
2023-02-12T14:06:20.444Z,101314.13
2023-02-12T14:08:49.872Z,101307.63
2023-02-12T14:11:18.570Z,101311.28
2023-02-12T14:13:47.333Z,101302.91
2023-02-12T14:16:19.565Z,101317.28
2023-02-12T14:18:46.961Z,101311.47
2023-02-12T14:21:17.022Z,101312.03
2023-02-12T14:23:45.918Z,101310.41
2023-02-12T14:26:19.585Z,101312.50
2023-02-12T14:28:48.912Z,101322.03
2023-02-12T14:31:21.333Z,101326.97
2023-02-12T14:33:49.712Z,101321.00
2023-02-12T14:36:32.601Z,101321.44
2023-02-12T14:39:01.840Z,101318.88
2023-02-12T14:41:41.727Z,101329.13
2023-02-12T14:44:23.284Z,101324.25
2023-02-12T14:46:51.735Z,101328.44
2023-02-12T14:49:19.318Z,101338.84
2023-02-12T14:52:05.560Z,101334.41
2023-02-12T14:54:37.214Z,101338.44
2023-02-12T14:57:09.274Z,101343.84
2023-02-12T14:59:40.564Z,101345.06
2023-02-12T15:02:08.390Z,101335.44
2023-02-12T15:04:39.750Z,101342.63
2023-02-12T15:07:08.640Z,101341.63
2023-02-12T15:09:36.979Z,101341.06
2023-02-12T15:12:26.587Z,101346.53
2023-02-12T15:15:20.467Z,101348.06
2023-02-12T15:17:58.420Z,101347.91
2023-02-12T15:20:46.279Z,101343.03
2023-02-12T15:23:33.353Z,101347.25
2023-02-12T15:26:01.035Z,101350.09
2023-02-12T15:28:33.513Z,101355.25
2023-02-12T15:31:02.106Z,101347.22
2023-02-12T15:33:33.450Z,101351.03
2023-02-12T15:36:01.401Z,101354.22
2023-02-12T15:38:33.664Z,101352.88
2023-02-12T15:41:01.897Z,101358.50
2023-02-12T15:43:32.080Z,101358.16
2023-02-12T15:45:59.496Z,101342.69
2023-02-12T15:48:32.447Z,101349.47
2023-02-12T15:51:15.241Z,101350.75
2023-02-12T15:53:42.995Z,101355.31
2023-02-12T15:56:12.260Z,101360.31
2023-02-12T15:58:42.426Z,101360.91
2023-02-12T16:01:14.159Z,101363.44
2023-02-12T16:03:41.744Z,101367.44
2023-02-12T16:06:16.908Z,101378.06
2023-02-12T16:08:45.743Z,101374.53
2023-02-12T16:11:16.149Z,101380.50
2023-02-12T16:13:46.810Z,101380.59
2023-02-12T16:16:14.470Z,101382.50
2023-02-12T16:18:42.139Z,101389.41
2023-02-12T16:21:12.429Z,101396.19
2023-02-12T16:23:42.552Z,101409.00
2023-02-12T16:26:12.983Z,101407.00
2023-02-12T16:28:40.616Z,101413.06
2023-02-12T16:31:09.072Z,101412.69
2023-02-12T16:33:48.626Z,101412.28
2023-02-12T16:36:16.309Z,101397.06
2023-02-12T16:38:44.787Z,101404.19
2023-02-12T16:41:25.321Z,101417.81
2023-02-12T16:44:01.968Z,101412.38
2023-02-12T16:46:32.906Z,101424.84
2023-02-12T16:49:00.875Z,101426.59
2023-02-12T16:51:29.542Z,101431.03
2023-02-12T16:53:57.771Z,101435.06
2023-02-12T16:56:27.322Z,101433.78
2023-02-12T16:58:57.173Z,101447.22
2023-02-12T17:01:28.946Z,101448.66
2023-02-12T17:03:57.756Z,101446.84
2023-02-12T17:06:26.464Z,101450.22
2023-02-12T17:08:53.935Z,101459.06
2023-02-12T17:11:23.153Z,101466.00
2023-02-12T17:13:51.663Z,101459.56
2023-02-12T17:16:30.218Z,101467.00
2023-02-12T17:18:59.119Z,101468.59
2023-02-12T17:21:55.705Z,101471.34
2023-02-12T17:24:24.601Z,101474.34
2023-02-12T17:26:52.424Z,101474.53
2023-02-12T17:29:20.507Z,101472.91
2023-02-12T17:31:48.467Z,101477.97
2023-02-12T17:34:16.573Z,101472.59
2023-02-12T17:36:44.060Z,101477.50
2023-02-12T17:39:12.904Z,101472.03
2023-02-12T17:41:40.872Z,101470.16
2023-02-12T17:44:08.386Z,101463.87
2023-02-12T17:46:36.026Z,101467.72
2023-02-12T17:49:03.993Z,101464.63
2023-02-12T17:51:31.448Z,101469.22
2023-02-12T17:53:59.224Z,101473.66
2023-02-12T17:56:26.720Z,101483.41
2023-02-12T17:58:54.357Z,101490.84
2023-02-12T18:01:22.517Z,101484.81
2023-02-12T18:03:53.769Z,101488.03
2023-02-12T18:06:25.771Z,101489.12
2023-02-12T18:08:53.557Z,101494.81
2023-02-12T18:11:20.812Z,101494.69
2023-02-12T18:13:48.276Z,101488.88
2023-02-12T18:16:16.410Z,101494.37
2023-02-12T18:18:43.884Z,101503.66
2023-02-12T18:21:12.293Z,101502.94
2023-02-12T18:23:40.103Z,101507.34
2023-02-12T18:26:08.759Z,101502.06
2023-02-12T18:28:36.391Z,101499.06
2023-02-12T18:31:04.723Z,101503.38
2023-02-12T18:33:33.109Z,101505.38
2023-02-12T18:36:05.649Z,101503.94
2023-02-12T18:38:35.227Z,101503.53
2023-02-12T18:41:09.681Z,101506.34
2023-02-12T18:43:37.378Z,101509.97
2023-02-12T18:46:08.388Z,101512.06
2023-02-12T18:48:37.106Z,101512.19
2023-02-12T18:51:05.470Z,101514.78
2023-02-12T18:53:32.943Z,101510.59
2023-02-12T18:56:03.459Z,101507.34
2023-02-12T18:58:31.228Z,101507.19
2023-02-12T19:00:59.002Z,101513.12
2023-02-12T19:03:26.864Z,101513.38
2023-02-12T19:05:54.527Z,101512.50
2023-02-12T19:08:21.990Z,101507.19
2023-02-12T19:10:49.589Z,101512.13
2023-02-12T19:13:17.334Z,101511.84
2023-02-12T19:15:44.805Z,101513.84
2023-02-12T19:18:12.635Z,101512.78
2023-02-12T19:20:40.496Z,101513.28
2023-02-12T19:23:08.071Z,101517.47
2023-02-12T19:25:39.694Z,101517.38
2023-02-12T19:28:07.323Z,101510.84
2023-02-12T19:30:36.142Z,101513.28
2023-02-12T19:33:03.793Z,101515.25
2023-02-12T19:35:31.563Z,101523.12
2023-02-12T19:37:59.013Z,101522.31
2023-02-12T19:40:26.340Z,101517.12
2023-02-12T19:42:54.202Z,101522.78
2023-02-12T19:45:21.646Z,101517.91
2023-02-12T19:47:50.749Z,101520.31
2023-02-12T19:50:18.873Z,101525.06
2023-02-12T19:52:46.396Z,101528.59
2023-02-12T19:55:13.757Z,101526.06
2023-02-12T19:57:41.377Z,101530.41
2023-02-12T20:00:08.988Z,101523.66
2023-02-12T20:02:36.716Z,101536.22
2023-02-12T20:05:04.249Z,101539.34
2023-02-12T20:07:31.736Z,101530.94
2023-02-12T20:09:59.339Z,101533.47
2023-02-12T20:12:26.525Z,101536.50
2023-02-12T20:14:54.589Z,101536.00
2023-02-12T20:17:22.601Z,101547.78
2023-02-12T20:19:49.980Z,101550.91
2023-02-12T20:22:17.394Z,101543.56
2023-02-12T20:24:45.018Z,101539.91
2023-02-12T20:27:12.959Z,101545.63
2023-02-12T20:29:40.556Z,101548.37
2023-02-12T20:32:08.599Z,101551.78
2023-02-12T20:34:49.979Z,101551.13
2023-02-12T20:37:18.869Z,101557.03
2023-02-12T20:39:46.284Z,101557.69
2023-02-12T20:42:13.798Z,101560.94
2023-02-12T20:44:41.487Z,101557.91
2023-02-12T20:47:08.676Z,101563.22
2023-02-12T20:49:35.882Z,101566.44
2023-02-12T20:52:03.645Z,101564.38
2023-02-12T20:54:31.044Z,101570.16
2023-02-12T20:56:59.512Z,101582.87
2023-02-12T20:59:27.231Z,101588.25
2023-02-12T21:01:54.746Z,101596.63
2023-02-12T21:04:22.179Z,101592.44
2023-02-12T21:06:49.942Z,101595.97
2023-02-12T21:09:17.550Z,101596.16
2023-02-12T21:11:45.860Z,101598.66
2023-02-12T21:14:23.488Z,101595.28
2023-02-12T21:16:55.019Z,101600.34
2023-02-12T21:19:22.966Z,101605.41
2023-02-12T21:21:50.392Z,101596.66
2023-02-12T21:24:18.844Z,101596.91
2023-02-12T21:26:46.485Z,101594.59
2023-02-12T21:29:14.023Z,101590.13
2023-02-12T21:31:42.321Z,101594.72
2023-02-12T21:34:11.542Z,101589.69
2023-02-12T21:36:39.344Z,101588.56
2023-02-12T21:39:07.112Z,101589.25
2023-02-12T21:41:35.792Z,101587.56
2023-02-12T21:44:04.170Z,101583.53
2023-02-12T21:46:31.304Z,101588.06
2023-02-12T21:48:58.779Z,101595.13
2023-02-12T21:51:26.886Z,101599.13
2023-02-12T21:53:56.371Z,101600.13
2023-02-12T21:56:24.046Z,101604.72
2023-02-12T21:58:51.508Z,101606.75
2023-02-12T22:01:19.776Z,101613.19
2023-02-12T22:03:47.298Z,101614.03
2023-02-12T22:06:14.807Z,101621.09
2023-02-12T22:08:41.931Z,101624.44
2023-02-12T22:11:10.385Z,101627.53
2023-02-12T22:13:37.678Z,101628.34
2023-02-12T22:16:11.321Z,101634.81
2023-02-12T22:18:38.993Z,101633.47
2023-02-12T22:21:07.294Z,101639.44
2023-02-12T22:23:34.755Z,101639.28
2023-02-12T22:26:06.323Z,101637.03
2023-02-12T22:28:33.789Z,101637.91
2023-02-12T22:31:05.042Z,101648.91
2023-02-12T22:33:32.468Z,101650.44
2023-02-12T22:36:05.192Z,101641.31
2023-02-12T22:38:36.310Z,101651.03
2023-02-12T22:41:03.719Z,101641.56
2023-02-12T22:43:31.947Z,101641.94
2023-02-12T22:45:59.614Z,101652.78
2023-02-12T22:48:28.211Z,101649.03
2023-02-12T22:50:55.910Z,101649.16
2023-02-12T22:53:23.967Z,101649.25
2023-02-12T22:55:51.273Z,101652.03
2023-02-12T22:58:18.791Z,101657.53
2023-02-12T23:00:46.252Z,101654.69
2023-02-12T23:03:13.446Z,101644.44
2023-02-12T23:05:40.658Z,101652.12
2023-02-12T23:08:08.058Z,101649.69
2023-02-12T23:10:35.222Z,101653.78
2023-02-12T23:13:02.906Z,101650.78
2023-02-12T23:15:30.931Z,101655.69
2023-02-12T23:17:58.084Z,101662.28
2023-02-12T23:20:25.257Z,101672.25
2023-02-12T23:22:52.709Z,101665.00
2023-02-12T23:25:19.891Z,101654.34
2023-02-12T23:27:47.100Z,101648.06
2023-02-12T23:30:14.715Z,101662.50
2023-02-12T23:32:41.941Z,101661.22
2023-02-12T23:35:09.130Z,101663.50
2023-02-12T23:37:36.560Z,101671.25
2023-02-12T23:40:03.785Z,101667.03
2023-02-12T23:42:30.926Z,101668.22
2023-02-12T23:44:58.352Z,101673.59
2023-02-12T23:47:25.462Z,101664.25
2023-02-12T23:49:52.666Z,101661.16
2023-02-12T23:52:20.092Z,101665.09
2023-02-12T23:54:47.219Z,101660.97
2023-02-12T23:57:14.468Z,101662.34
2023-02-12T23:59:41.874Z,101656.34
